createdAt,value
2018-06-02T00:00:41.465Z,930.87
2018-06-02T00:01:41.490Z,930.88
2018-06-02T00:02:41.611Z,930.92
2018-06-02T00:03:41.526Z,930.96
2018-06-02T00:04:41.526Z,930.96
2018-06-02T00:05:41.560Z,930.94
2018-06-02T00:06:41.558Z,930.97
2018-06-02T00:07:41.594Z,931.01
2018-06-02T00:08:41.813Z,931.03
2018-06-02T00:09:41.619Z,931.08
2018-06-02T00:10:41.637Z,931.10
2018-06-02T00:11:41.637Z,931.14
2018-06-02T00:12:41.639Z,931.12
2018-06-02T00:13:41.766Z,931.15
2018-06-02T00:14:41.671Z,931.14
2018-06-02T00:15:41.702Z,931.13
2018-06-02T00:16:41.706Z,931.12
2018-06-02T00:17:41.733Z,931.10
2018-06-02T00:18:41.964Z,931.12
2018-06-02T00:19:41.765Z,931.06
2018-06-02T00:20:41.776Z,931.05
2018-06-02T00:21:41.790Z,931.07
2018-06-02T00:22:41.784Z,931.06
2018-06-02T00:23:41.919Z,931.07
2018-06-02T00:24:41.813Z,931.03
2018-06-02T00:25:41.834Z,931.07
2018-06-02T00:26:41.852Z,931.09
2018-06-02T00:27:41.865Z,931.13
2018-06-02T00:28:41.963Z,931.16
2018-06-02T00:29:41.894Z,931.14
2018-06-02T00:30:41.906Z,931.17
2018-06-02T00:31:41.909Z,931.15
2018-06-02T00:32:41.922Z,931.16
2018-06-02T00:33:42.039Z,931.18
2018-06-02T00:34:41.971Z,931.18
2018-06-02T00:35:41.985Z,931.19
2018-06-02T00:36:41.993Z,931.20
2018-06-02T00:37:42.013Z,931.13
2018-06-02T00:38:42.130Z,931.16
2018-06-02T00:39:42.024Z,931.18
2018-06-02T00:40:42.030Z,931.23
2018-06-02T00:41:42.049Z,931.26
2018-06-02T00:42:42.071Z,931.31
2018-06-02T00:43:42.173Z,931.32
2018-06-02T00:44:42.101Z,931.32
2018-06-02T00:45:42.139Z,931.37
2018-06-02T00:46:42.118Z,931.37
2018-06-02T00:47:42.133Z,931.38
2018-06-02T00:48:42.267Z,931.37
2018-06-02T00:49:42.161Z,931.37
2018-06-02T00:50:42.173Z,931.32
2018-06-02T00:51:42.207Z,931.33
2018-06-02T00:52:42.196Z,931.33
2018-06-02T00:53:42.314Z,931.35
2018-06-02T00:54:42.244Z,931.29
2018-06-02T00:55:42.245Z,931.32
2018-06-02T00:56:42.252Z,931.31
2018-06-02T00:57:42.275Z,931.31
2018-06-02T00:58:42.392Z,931.30
2018-06-02T00:59:42.316Z,931.23
2018-06-02T01:00:42.329Z,931.23
2018-06-02T01:01:42.316Z,931.23
2018-06-02T01:02:42.353Z,931.22
2018-06-02T01:03:42.468Z,931.24
2018-06-02T01:04:42.363Z,931.23
2018-06-02T01:05:42.370Z,931.19
2018-06-02T01:06:42.396Z,931.19
2018-06-02T01:07:42.401Z,931.26
2018-06-02T01:08:42.522Z,931.22
2018-06-02T01:09:42.425Z,931.30
2018-06-02T01:10:42.450Z,931.34
2018-06-02T01:11:42.472Z,931.34
2018-06-02T01:12:42.518Z,931.31
2018-06-02T01:13:42.498Z,931.33
2018-06-02T01:14:42.618Z,931.36
2018-06-02T01:15:42.522Z,931.37
2018-06-02T01:16:42.541Z,931.38
2018-06-02T01:17:42.549Z,931.36
2018-06-02T01:18:42.558Z,931.36
2018-06-02T01:19:42.671Z,931.33
2018-06-02T01:20:42.569Z,931.34
2018-06-02T01:21:42.608Z,931.36
2018-06-02T01:22:42.598Z,931.32
2018-06-02T01:23:42.610Z,931.36
2018-06-02T01:24:42.625Z,931.38
2018-06-02T01:25:42.750Z,931.37
2018-06-02T01:26:42.649Z,931.42
2018-06-02T01:27:42.662Z,931.44
2018-06-02T01:28:42.688Z,931.47
2018-06-02T01:29:42.708Z,931.51
2018-06-02T01:30:42.809Z,931.51
2018-06-02T01:31:42.717Z,931.53
2018-06-02T01:32:42.743Z,931.54
2018-06-02T01:33:42.746Z,931.53
2018-06-02T01:34:42.757Z,931.54
2018-06-02T01:35:42.920Z,931.57
2018-06-02T01:36:42.801Z,931.52
2018-06-02T01:37:42.809Z,931.55
2018-06-02T01:38:42.829Z,931.55
2018-06-02T01:39:42.843Z,931.58
2018-06-02T01:40:42.945Z,931.59
2018-06-02T01:41:42.877Z,931.58
2018-06-02T01:42:42.867Z,931.58
2018-06-02T01:43:42.902Z,931.55
2018-06-02T01:44:42.892Z,931.58
2018-06-02T01:45:43.030Z,931.60
2018-06-02T01:46:42.932Z,931.61
2018-06-02T01:47:42.941Z,931.58
2018-06-02T01:48:42.960Z,931.63
2018-06-02T01:49:42.972Z,931.63
2018-06-02T01:50:43.180Z,931.62
2018-06-02T01:51:42.981Z,931.65
2018-06-02T01:52:43.007Z,931.64
2018-06-02T01:53:43.006Z,931.61
2018-06-02T01:54:43.046Z,931.61
2018-06-02T01:55:43.144Z,931.61
2018-06-02T01:56:43.070Z,931.61
2018-06-02T01:57:43.080Z,931.61
2018-06-02T01:58:43.083Z,931.62
2018-06-02T01:59:43.083Z,931.61
2018-06-02T02:00:43.218Z,931.58
2018-06-02T02:01:43.127Z,931.61
2018-06-02T02:02:43.138Z,931.61
2018-06-02T02:03:43.142Z,931.63
2018-06-02T02:04:43.171Z,931.61
2018-06-02T02:05:43.274Z,931.64
2018-06-02T02:06:43.188Z,931.63
2018-06-02T02:07:43.189Z,931.66
2018-06-02T02:08:43.214Z,931.66
2018-06-02T02:09:43.216Z,931.64
2018-06-02T02:10:43.333Z,931.63
2018-06-02T02:11:43.264Z,931.61
2018-06-02T02:12:43.290Z,931.62
2018-06-02T02:13:43.281Z,931.63
2018-06-02T02:14:43.303Z,931.63
2018-06-02T02:15:43.399Z,931.61
2018-06-02T02:16:43.318Z,931.68
2018-06-02T02:17:43.326Z,931.64
2018-06-02T02:18:43.347Z,931.61
2018-06-02T02:19:43.352Z,931.59
2018-06-02T02:20:43.381Z,931.59
2018-06-02T02:21:43.495Z,931.56
2018-06-02T02:22:43.386Z,931.56
2018-06-02T02:23:43.430Z,931.55
2018-06-02T02:24:43.413Z,931.55
2018-06-02T02:25:43.455Z,931.54
2018-06-02T02:26:43.556Z,931.51
2018-06-02T02:27:43.473Z,931.52
2018-06-02T02:28:43.482Z,931.51
2018-06-02T02:29:43.500Z,931.47
2018-06-02T02:30:43.496Z,931.47
2018-06-02T02:31:43.523Z,931.45
2018-06-02T02:32:43.674Z,931.45
2018-06-02T02:33:43.545Z,931.43
2018-06-02T02:34:43.571Z,931.43
2018-06-02T02:35:43.589Z,931.37
2018-06-02T02:36:43.579Z,931.32
2018-06-02T02:37:43.589Z,931.30
2018-06-02T02:38:43.706Z,931.24
2018-06-02T02:39:43.623Z,931.24
2018-06-02T02:40:43.643Z,931.24
2018-06-02T02:41:43.656Z,931.25
2018-06-02T02:42:43.670Z,931.28
2018-06-02T02:43:43.770Z,931.27
2018-06-02T02:44:43.711Z,931.26
2018-06-02T02:45:43.702Z,931.29
2018-06-02T02:46:43.711Z,931.32
2018-06-02T02:47:43.748Z,931.37
2018-06-02T02:48:43.913Z,931.35
2018-06-02T02:49:43.783Z,931.33
2018-06-02T02:50:43.768Z,931.37
2018-06-02T02:51:43.798Z,931.34
2018-06-02T02:52:43.793Z,931.35
2018-06-02T02:53:43.920Z,931.32
2018-06-02T02:54:43.838Z,931.35
2018-06-02T02:55:43.839Z,931.34
2018-06-02T02:56:43.864Z,931.41
2018-06-02T02:57:43.864Z,931.44
2018-06-02T02:58:43.986Z,931.38
2018-06-02T02:59:43.903Z,931.46
2018-06-02T03:00:43.908Z,931.45
2018-06-02T03:01:43.934Z,931.44
2018-06-02T03:02:43.952Z,931.46
2018-06-02T03:03:44.127Z,931.45
2018-06-02T03:04:43.962Z,931.46
2018-06-02T03:05:43.981Z,931.42
2018-06-02T03:06:44.002Z,931.42
2018-06-02T03:07:44.004Z,931.41
2018-06-02T03:08:44.132Z,931.42
2018-06-02T03:09:44.037Z,931.42
2018-06-02T03:10:44.038Z,931.40
2018-06-02T03:11:44.073Z,931.39
2018-06-02T03:12:44.079Z,931.38
2018-06-02T03:13:44.234Z,931.38
2018-06-02T03:14:44.118Z,931.37
2018-06-02T03:15:44.126Z,931.36
2018-06-02T03:16:44.146Z,931.37
2018-06-02T03:17:44.150Z,931.38
2018-06-02T03:18:44.172Z,931.38
2018-06-02T03:19:44.283Z,931.34
2018-06-02T03:20:44.178Z,931.36
2018-06-02T03:21:44.205Z,931.34
2018-06-02T03:22:44.215Z,931.33
2018-06-02T03:23:44.235Z,931.32
2018-06-02T03:24:44.393Z,931.33
2018-06-02T03:25:44.260Z,931.35
2018-06-02T03:26:44.257Z,931.37
2018-06-02T03:27:44.281Z,931.34
2018-06-02T03:28:44.283Z,931.32
2018-06-02T03:29:44.459Z,931.31
2018-06-02T03:30:44.341Z,931.32
2018-06-02T03:31:44.359Z,931.30
2018-06-02T03:32:44.340Z,931.29
2018-06-02T03:33:44.361Z,931.26
2018-06-02T03:34:44.377Z,931.25
2018-06-02T03:35:44.499Z,931.26
2018-06-02T03:36:44.404Z,931.24
2018-06-02T03:37:44.423Z,931.28
2018-06-02T03:38:44.443Z,931.33
2018-06-02T03:39:44.436Z,931.29
2018-06-02T03:40:44.571Z,931.29
2018-06-02T03:41:44.469Z,931.25
2018-06-02T03:42:44.493Z,931.26
2018-06-02T03:43:44.512Z,931.26
2018-06-02T03:44:44.514Z,931.27
2018-06-02T03:45:44.636Z,931.27
2018-06-02T03:46:44.528Z,931.30
2018-06-02T03:47:44.557Z,931.29
2018-06-02T03:48:44.551Z,931.32
2018-06-02T03:49:44.578Z,931.29
2018-06-02T03:50:44.700Z,931.29
2018-06-02T03:51:44.604Z,931.30
2018-06-02T03:52:44.605Z,931.31
2018-06-02T03:53:44.631Z,931.33
2018-06-02T03:54:44.653Z,931.28
2018-06-02T03:55:44.743Z,931.32
2018-06-02T03:56:44.663Z,931.25
2018-06-02T03:57:44.697Z,931.27
2018-06-02T03:58:44.694Z,931.27
2018-06-02T03:59:44.714Z,931.29
2018-06-02T04:00:44.721Z,931.33
2018-06-02T04:01:44.896Z,931.33
2018-06-02T04:02:44.742Z,931.35
2018-06-02T04:03:44.770Z,931.36
2018-06-02T04:04:44.775Z,931.31
2018-06-02T04:05:44.801Z,931.33
2018-06-02T04:06:44.903Z,931.30
2018-06-02T04:07:44.803Z,931.28
2018-06-02T04:08:44.846Z,931.31
2018-06-02T04:09:44.841Z,931.23
2018-06-02T04:10:44.846Z,931.23
2018-06-02T04:11:44.977Z,931.25
2018-06-02T04:12:44.880Z,931.26
2018-06-02T04:13:44.902Z,931.27
2018-06-02T04:14:44.897Z,931.28
2018-06-02T04:15:44.979Z,931.28
2018-06-02T04:16:45.037Z,931.26
2018-06-02T04:17:44.946Z,931.26
2018-06-02T04:18:44.965Z,931.27
2018-06-02T04:19:44.987Z,931.25
2018-06-02T04:20:44.991Z,931.24
2018-06-02T04:21:45.139Z,931.26
2018-06-02T04:22:45.005Z,931.27
2018-06-02T04:23:45.011Z,931.23
2018-06-02T04:24:45.052Z,931.24
2018-06-02T04:25:45.064Z,931.23
2018-06-02T04:26:45.223Z,931.21
2018-06-02T04:27:45.065Z,931.24
2018-06-02T04:28:45.079Z,931.21
2018-06-02T04:29:45.106Z,931.21
2018-06-02T04:30:45.109Z,931.22
2018-06-02T04:31:45.219Z,931.23
2018-06-02T04:32:45.144Z,931.20
2018-06-02T04:33:45.146Z,931.23
2018-06-02T04:34:45.154Z,931.26
2018-06-02T04:35:45.191Z,931.27
2018-06-02T04:36:45.295Z,931.24
2018-06-02T04:37:45.200Z,931.28
2018-06-02T04:38:45.206Z,931.28
2018-06-02T04:39:45.355Z,931.28
2018-06-02T04:40:45.233Z,931.25
2018-06-02T04:41:45.407Z,931.27
2018-06-02T04:42:45.263Z,931.28
2018-06-02T04:43:45.288Z,931.29
2018-06-02T04:44:45.287Z,931.30
2018-06-02T04:45:45.314Z,931.31
2018-06-02T04:46:45.417Z,931.30
2018-06-02T04:47:45.327Z,931.30
2018-06-02T04:48:45.343Z,931.28
2018-06-02T04:49:45.371Z,931.30
2018-06-02T04:50:45.370Z,931.26
2018-06-02T04:51:45.486Z,931.26
2018-06-02T04:52:45.402Z,931.26
2018-06-02T04:53:45.401Z,931.22
2018-06-02T04:54:45.419Z,931.24
2018-06-02T04:55:45.447Z,931.24
2018-06-02T04:56:45.676Z,931.23
2018-06-02T04:57:45.455Z,931.17
2018-06-02T04:58:45.482Z,931.15
2018-06-02T04:59:45.483Z,931.19
2018-06-02T05:00:45.509Z,931.18
2018-06-02T05:01:45.609Z,931.20
2018-06-02T05:02:45.538Z,931.23
2018-06-02T05:03:45.547Z,931.24
2018-06-02T05:04:45.567Z,931.23
2018-06-02T05:05:45.575Z,931.26
2018-06-02T05:06:45.601Z,931.22
2018-06-02T05:07:45.763Z,931.26
2018-06-02T05:08:45.600Z,931.28
2018-06-02T05:09:45.626Z,931.25
2018-06-02T05:10:45.647Z,931.28
2018-06-02T05:11:45.655Z,931.28
2018-06-02T05:12:45.755Z,931.26
2018-06-02T05:13:45.681Z,931.24
2018-06-02T05:14:45.685Z,931.22
2018-06-02T05:15:45.719Z,931.17
2018-06-02T05:16:45.711Z,931.15
2018-06-02T05:17:45.726Z,931.15
2018-06-02T05:18:45.908Z,931.03
2018-06-02T05:19:45.752Z,931.01
2018-06-02T05:20:45.784Z,930.99
2018-06-02T05:21:45.778Z,930.97
2018-06-02T05:22:45.811Z,930.96
2018-06-02T05:23:45.971Z,930.94
2018-06-02T05:24:45.812Z,930.92
2018-06-02T05:25:45.826Z,930.93
2018-06-02T05:26:45.854Z,930.91
2018-06-02T05:27:45.876Z,930.91
2018-06-02T05:28:45.965Z,930.91
2018-06-02T05:29:45.902Z,930.91
2018-06-02T05:30:45.905Z,930.91
2018-06-02T05:31:45.917Z,930.92
2018-06-02T05:32:45.944Z,930.89
2018-06-02T05:33:46.110Z,930.90
2018-06-02T05:34:45.958Z,930.89
2018-06-02T05:35:45.985Z,930.82
2018-06-02T05:36:45.995Z,930.88
2018-06-02T05:37:45.985Z,930.83
2018-06-02T05:38:46.122Z,930.84
2018-06-02T05:39:46.013Z,930.82
2018-06-02T05:40:46.028Z,930.82
2018-06-02T05:41:46.055Z,930.80
2018-06-02T05:42:46.067Z,930.75
2018-06-02T05:43:46.217Z,930.67
2018-06-02T05:44:46.111Z,930.64
2018-06-02T05:45:46.099Z,930.62
2018-06-02T05:46:46.114Z,930.61
2018-06-02T05:47:46.123Z,930.63
2018-06-02T05:48:46.149Z,930.64
2018-06-02T05:49:46.300Z,930.68
2018-06-02T05:50:46.176Z,930.65
2018-06-02T05:51:46.190Z,930.65
2018-06-02T05:52:46.189Z,930.66
2018-06-02T05:53:46.207Z,930.68
2018-06-02T05:54:46.389Z,930.69
2018-06-02T05:55:46.255Z,930.67
2018-06-02T05:56:46.262Z,930.68
2018-06-02T05:57:46.281Z,930.68
2018-06-02T05:58:46.268Z,930.68
2018-06-02T05:59:46.282Z,930.73
2018-06-02T06:00:46.464Z,930.73
2018-06-02T06:01:46.335Z,930.77
2018-06-02T06:02:46.345Z,930.76
2018-06-02T06:03:46.353Z,930.83
2018-06-02T06:04:46.375Z,930.82
2018-06-02T06:05:46.379Z,930.84
2018-06-02T06:06:46.542Z,930.82
2018-06-02T06:07:46.415Z,930.85
2018-06-02T06:08:46.420Z,930.81
2018-06-02T06:09:46.439Z,930.83
2018-06-02T06:10:46.431Z,930.82
2018-06-02T06:11:46.623Z,930.79
2018-06-02T06:12:46.464Z,930.76
2018-06-02T06:13:46.477Z,930.78
2018-06-02T06:14:46.491Z,930.80
2018-06-02T06:15:46.499Z,930.77
2018-06-02T06:16:46.523Z,930.79
2018-06-02T06:17:46.694Z,930.80
2018-06-02T06:18:46.565Z,930.80
2018-06-02T06:19:46.563Z,930.81
2018-06-02T06:20:46.565Z,930.76
2018-06-02T06:21:46.595Z,930.76
2018-06-02T06:22:46.764Z,930.72
2018-06-02T06:23:46.630Z,930.70
2018-06-02T06:24:46.617Z,930.67
2018-06-02T06:25:46.656Z,930.64
2018-06-02T06:26:46.712Z,930.61
2018-06-02T06:27:46.821Z,930.60
2018-06-02T06:28:46.696Z,930.61
2018-06-02T06:29:46.683Z,930.59
2018-06-02T06:30:46.704Z,930.60
2018-06-02T06:31:46.712Z,930.62
2018-06-02T06:32:46.827Z,930.63
2018-06-02T06:33:46.749Z,930.61
2018-06-02T06:34:46.753Z,930.64
2018-06-02T06:35:46.790Z,930.64
2018-06-02T06:36:46.782Z,930.67
2018-06-02T06:37:46.965Z,930.66
2018-06-02T06:38:46.829Z,930.68
2018-06-02T06:39:46.816Z,930.66
2018-06-02T06:40:46.840Z,930.69
2018-06-02T06:41:46.857Z,930.68
2018-06-02T06:42:46.862Z,930.68
2018-06-02T06:43:47.042Z,930.69
2018-06-02T06:44:46.980Z,930.68
2018-06-02T06:45:46.920Z,930.68
2018-06-02T06:46:46.933Z,930.74
2018-06-02T06:47:46.927Z,930.73
2018-06-02T06:48:47.041Z,930.77
2018-06-02T06:49:46.948Z,930.80
2018-06-02T06:50:46.978Z,930.83
2018-06-02T06:51:46.976Z,930.84
2018-06-02T06:52:47.000Z,930.81
2018-06-02T06:53:47.117Z,930.82
2018-06-02T06:54:47.017Z,930.79
2018-06-02T06:55:47.041Z,930.77
2018-06-02T06:56:47.062Z,930.78
2018-06-02T06:57:47.143Z,930.78
2018-06-02T06:58:47.241Z,930.78
2018-06-02T06:59:47.082Z,930.78
2018-06-02T07:00:47.106Z,930.74
2018-06-02T07:01:47.135Z,930.74
2018-06-02T07:02:47.138Z,930.71
2018-06-02T07:03:47.245Z,930.68
2018-06-02T07:04:47.155Z,930.68
2018-06-02T07:05:47.166Z,930.66
2018-06-02T07:06:47.197Z,930.65
2018-06-02T07:07:47.201Z,930.62
2018-06-02T07:08:47.370Z,930.62
2018-06-02T07:09:47.233Z,930.63
2018-06-02T07:10:47.243Z,930.67
2018-06-02T07:11:47.290Z,930.64
2018-06-02T07:12:47.267Z,930.69
2018-06-02T07:13:47.412Z,930.72
2018-06-02T07:14:47.405Z,930.68
2018-06-02T07:15:47.312Z,930.72
2018-06-02T07:16:47.333Z,930.70
2018-06-02T07:17:47.326Z,930.72
2018-06-02T07:18:47.350Z,930.73
2018-06-02T07:19:47.502Z,930.70
2018-06-02T07:20:47.367Z,930.73
2018-06-02T07:21:47.400Z,930.71
2018-06-02T07:22:47.413Z,930.71
2018-06-02T07:23:47.423Z,930.68
2018-06-02T07:24:47.623Z,930.68
2018-06-02T07:25:47.495Z,930.70
2018-06-02T07:26:47.466Z,930.69
2018-06-02T07:27:47.590Z,930.73
2018-06-02T07:28:47.475Z,930.72
2018-06-02T07:29:47.658Z,930.72
2018-06-02T07:30:47.513Z,930.71
2018-06-02T07:31:47.526Z,930.69
2018-06-02T07:32:47.526Z,930.69
2018-06-02T07:33:47.553Z,930.69
2018-06-02T07:34:47.654Z,930.67
2018-06-02T07:35:47.566Z,930.70
2018-06-02T07:36:47.600Z,930.69
2018-06-02T07:37:47.609Z,930.66
2018-06-02T07:38:47.634Z,930.66
2018-06-02T07:39:47.797Z,930.68
2018-06-02T07:40:47.638Z,930.69
2018-06-02T07:41:47.647Z,930.71
2018-06-02T07:42:47.685Z,930.69
2018-06-02T07:43:47.697Z,930.70
2018-06-02T07:44:47.836Z,930.70
2018-06-02T07:45:47.721Z,930.69
2018-06-02T07:46:47.732Z,930.71
2018-06-02T07:47:47.753Z,930.71
2018-06-02T07:48:47.758Z,930.71
2018-06-02T07:49:47.930Z,930.73
2018-06-02T07:50:47.772Z,930.70
2018-06-02T07:51:47.792Z,930.71
2018-06-02T07:52:47.817Z,930.71
2018-06-02T07:53:47.839Z,930.70
2018-06-02T07:54:47.980Z,930.71
2018-06-02T07:55:47.858Z,930.71
2018-06-02T07:56:47.857Z,930.72
2018-06-02T07:57:47.890Z,930.74
2018-06-02T07:58:47.897Z,930.78
2018-06-02T07:59:48.021Z,930.74
2018-06-02T08:00:47.909Z,930.77
2018-06-02T08:01:47.946Z,930.76
2018-06-02T08:02:47.964Z,930.76
2018-06-02T08:03:47.960Z,930.77
2018-06-02T08:04:48.068Z,930.80
2018-06-02T08:05:48.002Z,930.76
2018-06-02T08:06:47.999Z,930.79
2018-06-02T08:08:48.048Z,930.73
2018-06-02T08:09:48.236Z,930.75
2018-06-02T08:10:48.056Z,930.77
2018-06-02T08:11:48.085Z,930.76
2018-06-02T08:12:48.093Z,930.78
2018-06-02T08:13:48.093Z,930.81
2018-06-02T08:14:48.209Z,930.81
2018-06-02T08:15:48.126Z,930.80
2018-06-02T08:16:48.154Z,930.80
2018-06-02T08:17:48.146Z,930.82
2018-06-02T08:18:48.189Z,930.79
2018-06-02T08:19:48.276Z,930.80
2018-06-02T08:20:48.196Z,930.78
2018-06-02T08:21:48.214Z,930.80
2018-06-02T08:22:48.219Z,930.79
2018-06-02T08:23:48.250Z,930.80
2018-06-02T08:24:48.365Z,930.81
2018-06-02T08:25:48.264Z,930.85
2018-06-02T08:26:48.297Z,930.89
2018-06-02T08:27:48.313Z,930.85
2018-06-02T08:28:48.299Z,930.87
2018-06-02T08:29:48.477Z,930.80
2018-06-02T08:30:48.352Z,930.86
2018-06-02T08:31:48.359Z,930.85
2018-06-02T08:32:48.381Z,930.88
2018-06-02T08:33:48.387Z,930.83
2018-06-02T08:34:48.497Z,930.87
2018-06-02T08:35:48.400Z,930.84
2018-06-02T08:36:48.426Z,930.87
2018-06-02T08:37:48.446Z,930.88
2018-06-02T08:38:48.447Z,930.90
2018-06-02T08:39:48.573Z,930.95
2018-06-02T08:40:48.467Z,930.92
2018-06-02T08:41:48.503Z,930.89
2018-06-02T08:42:48.520Z,930.94
2018-06-02T08:43:48.508Z,930.90
2018-06-02T08:44:48.657Z,930.91
2018-06-02T08:45:48.685Z,930.92
2018-06-02T08:46:48.578Z,930.94
2018-06-02T08:47:48.593Z,930.96
2018-06-02T08:48:48.595Z,930.97
2018-06-02T08:49:48.591Z,930.97
2018-06-02T08:50:48.729Z,930.96
2018-06-02T08:51:48.620Z,930.97
2018-06-02T08:52:48.636Z,930.92
2018-06-02T08:53:48.662Z,930.91
2018-06-02T08:54:48.677Z,930.89
2018-06-02T08:55:48.849Z,930.89
2018-06-02T08:56:48.705Z,930.91
2018-06-02T08:57:48.725Z,930.90
2018-06-02T08:58:48.743Z,930.91
2018-06-02T08:59:48.750Z,930.88
2018-06-02T09:00:48.771Z,930.96
2018-06-02T09:01:48.882Z,930.94
2018-06-02T09:02:48.786Z,930.99
2018-06-02T09:03:48.813Z,931.02
2018-06-02T09:04:48.801Z,931.03
2018-06-02T09:05:48.841Z,931.06
2018-06-02T09:06:48.982Z,931.05
2018-06-02T09:07:48.844Z,931.08
2018-06-02T09:08:48.859Z,931.08
2018-06-02T09:09:48.881Z,931.09
2018-06-02T09:10:48.913Z,931.12
2018-06-02T09:11:49.007Z,931.18
2018-06-02T09:12:48.939Z,931.18
2018-06-02T09:13:48.939Z,931.20
2018-06-02T09:14:48.948Z,931.21
2018-06-02T09:15:48.978Z,931.24
2018-06-02T09:16:49.146Z,931.23
2018-06-02T09:17:48.984Z,931.27
2018-06-02T09:18:48.998Z,931.29
2018-06-02T09:19:49.018Z,931.27
2018-06-02T09:20:49.052Z,931.34
2018-06-02T09:21:49.219Z,931.28
2018-06-02T09:22:49.073Z,931.31
2018-06-02T09:23:49.094Z,931.37
2018-06-02T09:24:49.095Z,931.38
2018-06-02T09:25:49.118Z,931.38
2018-06-02T09:26:49.261Z,931.37
2018-06-02T09:27:49.162Z,931.41
2018-06-02T09:28:49.162Z,931.41
2018-06-02T09:29:49.166Z,931.39
2018-06-02T09:30:49.184Z,931.40
2018-06-02T09:31:49.303Z,931.37
2018-06-02T09:32:49.211Z,931.38
2018-06-02T09:33:49.211Z,931.34
2018-06-02T09:34:49.225Z,931.38
2018-06-02T09:35:49.239Z,931.41
2018-06-02T09:36:49.353Z,931.41
2018-06-02T09:37:49.278Z,931.48
2018-06-02T09:38:49.279Z,931.45
2018-06-02T09:39:49.429Z,931.47
2018-06-02T09:40:49.307Z,931.50
2018-06-02T09:41:49.498Z,931.54
2018-06-02T09:42:49.347Z,931.55
2018-06-02T09:43:49.350Z,931.56
2018-06-02T09:44:49.364Z,931.58
2018-06-02T09:45:49.404Z,931.57
2018-06-02T09:46:49.595Z,931.56
2018-06-02T09:47:49.427Z,931.52
2018-06-02T09:48:49.422Z,931.55
2018-06-02T09:49:49.448Z,931.54
2018-06-02T09:50:49.461Z,931.54
2018-06-02T09:51:49.566Z,931.52
2018-06-02T09:52:49.492Z,931.52
2018-06-02T09:53:49.512Z,931.60
2018-06-02T09:54:49.531Z,931.60
2018-06-02T09:55:49.539Z,931.64
2018-06-02T09:56:49.682Z,931.64
2018-06-02T09:57:49.571Z,931.65
2018-06-02T09:58:49.584Z,931.68
2018-06-02T09:59:49.577Z,931.63
2018-06-02T10:00:49.610Z,931.64
2018-06-02T10:01:49.767Z,931.62
2018-06-02T10:02:49.622Z,931.64
2018-06-02T10:03:49.636Z,931.66
2018-06-02T10:04:49.647Z,931.64
2018-06-02T10:05:49.664Z,931.64
2018-06-02T10:06:49.804Z,931.63
2018-06-02T10:07:49.718Z,931.68
2018-06-02T10:08:49.730Z,931.69
2018-06-02T10:09:49.740Z,931.67
2018-06-02T10:10:49.748Z,931.66
2018-06-02T10:11:49.769Z,931.63
2018-06-02T10:12:49.926Z,931.71
2018-06-02T10:13:49.795Z,931.74
2018-06-02T10:14:49.815Z,931.71
2018-06-02T10:15:49.823Z,931.76
2018-06-02T10:16:49.843Z,931.75
2018-06-02T10:17:50.000Z,931.76
2018-06-02T10:18:49.868Z,931.78
2018-06-02T10:19:49.877Z,931.79
2018-06-02T10:20:49.897Z,931.77
2018-06-02T10:21:49.903Z,931.78
2018-06-02T10:22:50.004Z,931.84
2018-06-02T10:23:49.939Z,931.85
2018-06-02T10:24:49.946Z,931.91
2018-06-02T10:25:49.968Z,931.91
2018-06-02T10:26:49.989Z,931.95
2018-06-02T10:27:50.101Z,931.93
2018-06-02T10:28:50.017Z,931.96
2018-06-02T10:29:50.004Z,931.96
2018-06-02T10:30:50.032Z,931.91
2018-06-02T10:31:50.034Z,931.93
2018-06-02T10:32:50.152Z,931.93
2018-06-02T10:33:50.088Z,931.96
2018-06-02T10:34:50.078Z,931.97
2018-06-02T10:35:50.107Z,932.06
2018-06-02T10:36:50.130Z,932.06
2018-06-02T10:37:50.224Z,932.09
2018-06-02T10:38:50.191Z,932.10
2018-06-02T10:39:50.172Z,932.10
2018-06-02T10:40:50.173Z,932.15
2018-06-02T10:41:50.199Z,932.16
2018-06-02T10:42:50.305Z,932.17
2018-06-02T10:43:50.213Z,932.22
2018-06-02T10:44:50.233Z,932.26
2018-06-02T10:45:50.266Z,932.27
2018-06-02T10:46:50.278Z,932.29
2018-06-02T10:47:50.365Z,932.37
2018-06-02T10:48:50.306Z,932.37
2018-06-02T10:49:50.295Z,932.41
2018-06-02T10:50:50.324Z,932.42
2018-06-02T10:51:50.333Z,932.47
2018-06-02T10:52:50.344Z,932.49
2018-06-02T10:53:50.458Z,932.49
2018-06-02T10:54:50.372Z,932.48
2018-06-02T10:55:50.398Z,932.49
2018-06-02T10:56:50.422Z,932.52
2018-06-02T10:57:50.428Z,932.56
2018-06-02T10:58:50.553Z,932.56
2018-06-02T10:59:50.452Z,932.56
2018-06-02T11:00:50.473Z,932.59
2018-06-02T11:01:50.493Z,932.58
2018-06-02T11:02:50.497Z,932.58
2018-06-02T11:03:50.625Z,932.62
2018-06-02T11:04:50.546Z,932.60
2018-06-02T11:05:50.541Z,932.66
2018-06-02T11:06:50.556Z,932.66
2018-06-02T11:07:50.568Z,932.68
2018-06-02T11:08:50.581Z,932.69
2018-06-02T11:09:50.719Z,932.72
2018-06-02T11:10:50.632Z,932.70
2018-06-02T11:11:50.635Z,932.74
2018-06-02T11:12:50.665Z,932.75
2018-06-02T11:13:50.672Z,932.71
2018-06-02T11:14:50.797Z,932.69
2018-06-02T11:15:50.690Z,932.66
2018-06-02T11:16:50.704Z,932.68
2018-06-02T11:17:50.732Z,932.67
2018-06-02T11:18:50.760Z,932.71
2018-06-02T11:19:50.879Z,932.75
2018-06-02T11:20:50.770Z,932.79
2018-06-02T11:21:50.797Z,932.81
2018-06-02T11:22:50.819Z,932.82
2018-06-02T11:23:50.828Z,932.88
2018-06-02T11:24:50.989Z,932.89
2018-06-02T11:25:50.887Z,932.94
2018-06-02T11:26:50.878Z,932.96
2018-06-02T11:27:50.898Z,932.99
2018-06-02T11:28:50.919Z,932.98
2018-06-02T11:29:51.083Z,932.99
2018-06-02T11:30:50.942Z,933.00
2018-06-02T11:31:50.950Z,933.04
2018-06-02T11:32:51.096Z,933.03
2018-06-02T11:33:51.007Z,933.03
2018-06-02T11:34:51.121Z,933.06
2018-06-02T11:35:51.086Z,933.10
2018-06-02T11:36:51.055Z,933.08
2018-06-02T11:37:51.056Z,933.10
2018-06-02T11:38:51.081Z,933.11
2018-06-02T11:39:51.244Z,933.09
2018-06-02T11:40:51.100Z,933.09
2018-06-02T11:41:51.110Z,933.12
2018-06-02T11:42:51.139Z,933.15
2018-06-02T11:43:51.166Z,933.17
2018-06-02T11:44:51.273Z,933.14
2018-06-02T11:45:51.181Z,933.17
2018-06-02T11:46:51.215Z,933.17
2018-06-02T11:47:51.210Z,933.19
2018-06-02T11:48:51.232Z,933.21
2018-06-02T11:49:51.393Z,933.20
2018-06-02T11:50:51.282Z,933.18
2018-06-02T11:51:51.291Z,933.18
2018-06-02T11:52:51.297Z,933.17
2018-06-02T11:53:51.324Z,933.18
2018-06-02T11:54:51.562Z,933.15
2018-06-02T11:55:51.368Z,933.16
2018-06-02T11:56:51.361Z,933.13
2018-06-02T11:57:51.400Z,933.12
2018-06-02T11:58:51.408Z,933.13
2018-06-02T11:59:51.575Z,933.17
2018-06-02T12:00:51.456Z,933.18
2018-06-02T12:01:51.456Z,933.17
2018-06-02T12:02:51.475Z,933.16
2018-06-02T12:03:51.499Z,933.19
2018-06-02T12:04:51.522Z,933.17
2018-06-02T12:05:51.632Z,933.16
2018-06-02T12:06:51.578Z,933.17
2018-06-02T12:07:51.572Z,933.22
2018-06-02T12:08:51.570Z,933.21
2018-06-02T12:09:51.581Z,933.25
2018-06-02T12:10:51.701Z,933.32
2018-06-02T12:11:51.623Z,933.29
2018-06-02T12:12:51.636Z,933.32
2018-06-02T12:13:51.724Z,933.36
2018-06-02T12:14:51.687Z,933.34
2018-06-02T12:15:51.691Z,933.32
2018-06-02T12:16:51.860Z,933.34
2018-06-02T12:17:51.723Z,933.36
2018-06-02T12:18:51.765Z,933.35
2018-06-02T12:19:51.777Z,933.36
2018-06-02T12:20:51.799Z,933.38
2018-06-02T12:21:51.949Z,933.36
2018-06-02T12:22:51.835Z,933.38
2018-06-02T12:23:51.846Z,933.35
2018-06-02T12:24:51.870Z,933.32
2018-06-02T12:25:51.875Z,933.37
2018-06-02T12:26:51.990Z,933.34
2018-06-02T12:27:51.921Z,933.29
2018-06-02T12:28:51.915Z,933.38
2018-06-02T12:29:51.936Z,933.39